createdAt,value
2018-04-11T00:01:00.203Z,56.84
2018-04-11T00:03:26.167Z,56.70
2018-04-11T00:05:52.104Z,56.86
2018-04-11T00:08:18.069Z,56.97
2018-04-11T00:10:44.051Z,56.81
2018-04-11T00:13:09.989Z,56.68
2018-04-11T00:15:35.954Z,57.05
2018-04-11T00:18:01.959Z,57.15
2018-04-11T00:20:27.894Z,57.39
2018-04-11T00:22:53.838Z,57.05
2018-04-11T00:25:19.802Z,57.38
2018-04-11T00:27:45.824Z,57.26
2018-04-11T00:30:11.764Z,57.12
2018-04-11T00:32:37.728Z,57.15
2018-04-11T00:35:03.753Z,57.17
2018-04-11T00:37:29.692Z,56.97
2018-04-11T00:39:55.649Z,56.95
2018-04-11T00:42:21.674Z,56.94
2018-04-11T00:44:47.638Z,56.93
2018-04-11T00:47:13.587Z,57.02
2018-04-11T00:49:39.542Z,56.95
2018-04-11T00:52:05.484Z,56.72
2018-04-11T00:54:31.434Z,56.89
2018-04-11T00:56:57.447Z,56.81
2018-04-11T00:59:23.401Z,56.92
2018-04-11T01:01:49.428Z,56.93
2018-04-11T01:04:15.410Z,57.18
2018-04-11T01:06:41.352Z,57.29
2018-04-11T01:09:07.321Z,57.01
2018-04-11T01:11:33.299Z,57.46
2018-04-11T01:13:59.255Z,57.63
2018-04-11T01:16:25.229Z,57.41
2018-04-11T01:18:51.192Z,57.41
2018-04-11T01:21:17.136Z,57.26
2018-04-11T01:23:43.075Z,57.37
2018-04-11T01:26:09.012Z,57.17
2018-04-11T01:28:34.957Z,56.99
2018-04-11T01:31:00.916Z,57.27
2018-04-11T01:33:26.870Z,57.23
2018-04-11T01:35:52.804Z,57.16
2018-04-11T01:38:18.747Z,57.12
2018-04-11T01:40:44.727Z,57.00
2018-04-11T01:43:10.671Z,56.85
2018-04-11T01:45:36.609Z,56.83
2018-04-11T01:48:02.568Z,56.96
2018-04-11T01:50:28.620Z,57.18
2018-04-11T01:52:55.156Z,57.11
2018-04-11T01:55:21.096Z,57.16
2018-04-11T01:57:47.054Z,57.31
2018-04-11T02:00:12.995Z,57.38
2018-04-11T02:02:38.956Z,57.61
2018-04-11T02:05:04.914Z,57.40
2018-04-11T02:07:30.855Z,57.21
2018-04-11T02:09:56.820Z,57.21
2018-04-11T02:12:22.777Z,57.22
2018-04-11T02:14:48.720Z,57.04
2018-04-11T02:17:14.663Z,57.18
2018-04-11T02:19:40.603Z,56.94
2018-04-11T02:22:06.560Z,56.98
2018-04-11T02:24:32.507Z,57.01
2018-04-11T02:26:58.472Z,56.99
2018-04-11T02:29:24.412Z,57.04
2018-04-11T02:31:50.391Z,56.91
2018-04-11T02:34:16.336Z,56.90
2018-04-11T02:36:42.279Z,56.94
2018-04-11T02:39:08.223Z,57.06
2018-04-11T02:41:34.167Z,57.02
2018-04-11T02:44:00.144Z,57.17
2018-04-11T02:46:26.083Z,57.42
2018-04-11T02:48:52.044Z,57.28
2018-04-11T02:51:18.064Z,57.48
2018-04-11T02:53:44.020Z,57.09
2018-04-11T02:56:09.963Z,57.38
2018-04-11T02:58:35.933Z,57.12
2018-04-11T03:01:01.893Z,57.16
2018-04-11T03:03:27.861Z,57.12
2018-04-11T03:05:53.820Z,57.14
2018-04-11T03:08:19.761Z,56.99
2018-04-11T03:10:45.699Z,57.24
2018-04-11T03:13:11.644Z,56.91
2018-04-11T03:15:37.581Z,57.01
2018-04-11T03:18:03.539Z,56.92
2018-04-11T03:20:29.477Z,57.01
2018-04-11T03:22:55.450Z,56.94
2018-04-11T03:25:21.395Z,57.10
2018-04-11T03:27:47.331Z,56.92
2018-04-11T03:30:13.275Z,56.80
2018-04-11T03:32:39.228Z,56.93
2018-04-11T03:35:05.204Z,57.33
2018-04-11T03:37:31.148Z,57.28
2018-04-11T03:39:57.095Z,56.96
2018-04-11T03:42:23.115Z,57.32
2018-04-11T03:44:49.052Z,57.32
2018-04-11T03:47:14.987Z,57.22
2018-04-11T03:49:40.928Z,57.11
2018-04-11T03:52:06.887Z,57.10
2018-04-11T03:54:32.831Z,57.27
2018-04-11T03:56:58.793Z,56.98
2018-04-11T03:59:24.740Z,57.23
2018-04-11T04:01:50.725Z,56.94
2018-04-11T04:04:16.677Z,56.96
2018-04-11T04:06:42.633Z,56.86
2018-04-11T04:09:08.588Z,57.20
2018-04-11T04:11:34.528Z,56.94
2018-04-11T04:14:00.491Z,56.98
2018-04-11T04:16:26.456Z,57.16
2018-04-11T04:18:52.407Z,57.18
2018-04-11T04:21:18.344Z,57.32
2018-04-11T04:23:44.281Z,57.11
2018-04-11T04:26:10.217Z,57.33
2018-04-11T04:28:36.160Z,57.36
2018-04-11T04:31:02.098Z,57.28
2018-04-11T04:33:28.083Z,57.13
2018-04-11T04:35:54.039Z,57.03
2018-04-11T04:38:19.985Z,57.06
2018-04-11T04:40:45.929Z,57.23
2018-04-11T04:43:11.879Z,57.18
2018-04-11T04:45:37.839Z,57.22
2018-04-11T04:48:03.801Z,57.01
2018-04-11T04:50:29.740Z,57.17
2018-04-11T04:52:55.697Z,57.35
2018-04-11T04:55:21.645Z,57.17
2018-04-11T04:57:47.651Z,57.27
2018-04-11T05:00:13.608Z,56.98
2018-04-11T05:02:39.564Z,56.92
2018-04-11T05:05:05.515Z,56.99
2018-04-11T05:07:31.479Z,57.20
2018-04-11T05:09:57.423Z,57.20
2018-04-11T05:12:23.384Z,57.38
2018-04-11T05:14:49.360Z,57.37
2018-04-11T05:17:15.313Z,57.26
2018-04-11T05:19:41.356Z,57.08
2018-04-11T05:22:07.306Z,57.24
2018-04-11T05:24:33.257Z,57.19
2018-04-11T05:26:59.200Z,56.96
2018-04-11T05:29:25.155Z,57.28
2018-04-11T05:31:51.100Z,57.34
2018-04-11T05:34:17.052Z,56.92
2018-04-11T05:36:43.012Z,57.15
2018-04-11T05:39:08.965Z,57.22
2018-04-11T05:41:34.909Z,57.05
2018-04-11T05:44:00.847Z,56.86
2018-04-11T05:46:26.896Z,57.00
2018-04-11T05:48:52.839Z,57.16
2018-04-11T05:51:18.792Z,56.97
2018-04-11T05:53:44.727Z,57.19
2018-04-11T05:56:10.685Z,57.28
2018-04-11T05:58:36.636Z,56.84
2018-04-11T06:01:02.617Z,56.78
2018-04-11T06:03:28.565Z,56.57
2018-04-11T06:05:54.519Z,56.61
2018-04-11T06:08:20.489Z,56.54
2018-04-11T06:10:46.432Z,58.20
2018-04-11T06:13:12.378Z,57.08
2018-04-11T06:15:38.312Z,56.87
2018-04-11T06:18:04.268Z,57.43
2018-04-11T06:20:30.284Z,57.22
2018-04-11T06:22:56.290Z,57.30
2018-04-11T06:25:22.213Z,57.43
2018-04-11T06:27:48.154Z,57.66
2018-04-11T06:30:14.083Z,57.09
2018-04-11T06:32:40.120Z,57.06
2018-04-11T06:35:06.110Z,57.30
2018-04-11T06:37:32.040Z,57.68
2018-04-11T06:39:58.009Z,57.25
2018-04-11T06:42:24.011Z,57.19
2018-04-11T06:44:50.000Z,57.76
2018-04-11T06:47:15.981Z,57.13
2018-04-11T06:49:41.896Z,57.00
2018-04-11T06:52:07.869Z,57.25
2018-04-11T06:54:33.808Z,57.23
2018-04-11T06:56:59.755Z,57.54
2018-04-11T06:59:25.754Z,57.42
2018-04-11T07:01:51.663Z,57.51
2018-04-11T07:04:17.609Z,57.09
2018-04-11T07:06:43.637Z,57.41
2018-04-11T07:09:09.629Z,57.33
2018-04-11T07:11:35.563Z,57.17
2018-04-11T07:14:01.510Z,57.56
2018-04-11T07:16:27.448Z,57.45
2018-04-11T07:18:53.449Z,57.60
2018-04-11T07:21:19.499Z,57.37
2018-04-11T07:23:45.468Z,57.21
2018-04-11T07:26:11.407Z,57.34
2018-04-11T07:28:37.364Z,57.40
2018-04-11T07:31:03.391Z,57.27
2018-04-11T07:33:29.413Z,57.27
2018-04-11T07:35:55.439Z,57.61
2018-04-11T07:38:21.472Z,57.30
2018-04-11T07:40:47.444Z,57.33
2018-04-11T07:43:13.398Z,57.77
2018-04-11T07:45:39.348Z,57.20
2018-04-11T07:48:05.387Z,57.62
2018-04-11T07:50:31.412Z,57.89
2018-04-11T07:52:57.443Z,57.35
2018-04-11T07:55:23.390Z,57.67
2018-04-11T07:57:49.395Z,57.46
2018-04-11T08:00:15.416Z,57.07
2018-04-11T08:02:41.455Z,57.24
2018-04-11T08:05:07.395Z,57.28
2018-04-11T08:07:33.360Z,57.31
2018-04-11T08:09:59.360Z,57.53
2018-04-11T08:12:25.252Z,57.89
2018-04-11T08:14:51.219Z,57.84
2018-04-11T08:17:17.157Z,57.15
2018-04-11T08:19:43.130Z,57.71
2018-04-11T08:22:09.090Z,57.87
2018-04-11T08:24:35.025Z,57.80
2018-04-11T08:27:01.036Z,57.30
2018-04-11T08:29:27.004Z,57.68
2018-04-11T08:31:52.992Z,57.29
2018-04-11T08:34:18.934Z,57.65
2018-04-11T08:36:44.935Z,57.60
2018-04-11T08:39:10.926Z,57.95
2018-04-11T08:41:36.876Z,57.04
2018-04-11T08:44:02.829Z,57.01
2018-04-11T08:46:28.763Z,56.92
2018-04-11T08:48:54.707Z,56.85
2018-04-11T08:51:20.676Z,57.59
2018-04-11T08:53:46.733Z,57.36
2018-04-11T08:56:12.770Z,57.46
2018-04-11T08:58:38.715Z,56.97
2018-04-11T09:01:04.668Z,56.73
2018-04-11T09:03:30.648Z,56.55
2018-04-11T09:05:56.665Z,56.65
2018-04-11T09:08:22.614Z,56.38
2018-04-11T09:10:48.565Z,57.02
2018-04-11T09:13:14.563Z,57.13
2018-04-11T09:15:40.529Z,57.16
2018-04-11T09:18:06.472Z,57.20
2018-04-11T09:20:32.422Z,57.11
2018-04-11T09:22:58.376Z,57.14
2018-04-11T09:25:24.329Z,57.04
2018-04-11T09:27:50.268Z,57.18
2018-04-11T09:30:16.215Z,57.14
2018-04-11T09:32:42.184Z,57.09
2018-04-11T09:35:08.132Z,57.18
2018-04-11T09:37:34.128Z,57.14
2018-04-11T09:40:00.104Z,57.11
2018-04-11T09:42:26.037Z,57.13
2018-04-11T09:44:51.999Z,57.08
2018-04-11T09:47:17.952Z,57.12
2018-04-11T09:49:43.920Z,57.34
2018-04-11T09:52:09.856Z,57.35
2018-04-11T09:54:35.825Z,57.29
2018-04-11T09:57:01.780Z,57.19
2018-04-11T09:59:27.728Z,57.31
2018-04-11T10:01:53.675Z,57.39
2018-04-11T10:04:19.612Z,57.18
2018-04-11T10:06:45.572Z,57.56
2018-04-11T10:09:11.508Z,57.25
2018-04-11T10:11:37.468Z,57.55
2018-04-11T10:14:03.433Z,57.36
2018-04-11T10:16:29.414Z,57.18
2018-04-11T10:18:55.400Z,57.37
2018-04-11T10:21:21.361Z,57.14
2018-04-11T10:23:47.321Z,57.16
2018-04-11T10:26:13.269Z,56.92
2018-04-11T10:28:39.299Z,56.89
2018-04-11T10:31:05.256Z,56.94
2018-04-11T10:33:31.205Z,56.80
2018-04-11T10:35:57.143Z,56.81
2018-04-11T10:38:23.080Z,56.74
2018-04-11T10:40:49.060Z,56.75
2018-04-11T10:43:15.085Z,56.73
2018-04-11T10:45:41.177Z,56.57
2018-04-11T10:48:07.281Z,56.83
2018-04-11T10:50:33.223Z,57.54
2018-04-11T10:52:59.173Z,57.39
2018-04-11T10:55:25.122Z,57.54
2018-04-11T10:57:51.091Z,57.44
2018-04-11T11:00:17.048Z,57.45
2018-04-11T11:02:43.001Z,57.61
2018-04-11T11:05:09.040Z,57.39
2018-04-11T11:07:35.005Z,57.53
2018-04-11T11:10:00.960Z,57.49
2018-04-11T11:12:26.895Z,57.14
2018-04-11T11:14:52.832Z,57.24
2018-04-11T11:17:18.805Z,57.27
2018-04-11T11:19:44.755Z,57.34
2018-04-11T11:22:10.706Z,57.23
2018-04-11T11:24:36.644Z,57.18
2018-04-11T11:27:02.616Z,57.26
2018-04-11T11:29:28.573Z,57.21
2018-04-11T11:31:54.516Z,56.67
2018-04-11T11:34:20.468Z,56.72
2018-04-11T11:36:46.411Z,56.68
2018-04-11T11:39:12.398Z,56.93
2018-04-11T11:41:38.441Z,56.96
2018-04-11T11:44:04.377Z,57.37
2018-04-11T11:46:30.335Z,57.22
2018-04-11T11:48:56.305Z,57.12
2018-04-11T11:51:22.263Z,56.72
2018-04-11T11:53:48.239Z,56.97
2018-04-11T11:56:15.229Z,56.95
2018-04-11T11:58:41.173Z,56.93
2018-04-11T12:01:07.133Z,56.66
2018-04-11T12:03:33.086Z,56.92
2018-04-11T12:05:59.104Z,56.64
2018-04-11T12:08:25.045Z,56.79
2018-04-11T12:10:50.976Z,56.83
2018-04-11T12:13:16.941Z,56.60
2018-04-11T12:15:42.902Z,56.57
2018-04-11T12:18:08.864Z,56.30
2018-04-11T12:20:34.809Z,57.27
2018-04-11T12:23:00.747Z,57.03
2018-04-11T12:25:26.696Z,57.08
2018-04-11T12:27:52.648Z,57.22
2018-04-11T12:30:18.601Z,57.23
2018-04-11T12:32:44.537Z,57.13
2018-04-11T12:35:10.513Z,57.19
2018-04-11T12:37:36.460Z,57.25
2018-04-11T12:40:02.413Z,57.41
2018-04-11T12:42:28.364Z,57.54
2018-04-11T12:44:54.329Z,57.17
2018-04-11T12:47:20.291Z,57.27
2018-04-11T12:49:46.260Z,56.99
2018-04-11T12:52:12.265Z,57.04
2018-04-11T12:54:38.204Z,57.11
2018-04-11T12:57:04.162Z,56.88
2018-04-11T12:59:30.105Z,56.95
2018-04-11T13:01:56.056Z,56.92
2018-04-11T13:04:22.016Z,57.07
2018-04-11T13:06:47.972Z,56.89
2018-04-11T13:09:13.940Z,56.91
2018-04-11T13:11:39.876Z,56.87
2018-04-11T13:14:05.836Z,56.95
2018-04-11T13:16:31.784Z,57.18
2018-04-11T13:18:57.722Z,57.33
2018-04-11T13:21:23.770Z,57.28
2018-04-11T13:23:49.716Z,57.38
2018-04-11T13:26:15.681Z,57.43
2018-04-11T13:28:41.696Z,57.29
2018-04-11T13:31:07.645Z,57.35
2018-04-11T13:33:33.591Z,57.11
2018-04-11T13:35:59.602Z,56.96
2018-04-11T13:38:25.568Z,56.59
2018-04-11T13:40:51.528Z,56.47
2018-04-11T13:43:17.475Z,56.65
2018-04-11T13:45:43.428Z,56.76
2018-04-11T13:48:09.376Z,56.40
2018-04-11T13:50:35.340Z,56.40
2018-04-11T13:53:01.312Z,57.06
2018-04-11T13:55:27.275Z,56.88
2018-04-11T13:57:53.350Z,56.75
2018-04-11T14:00:19.296Z,56.95
2018-04-11T14:02:45.240Z,57.00
2018-04-11T14:05:11.188Z,57.27
2018-04-11T14:07:37.153Z,57.65
2018-04-11T14:10:03.101Z,57.29
2018-04-11T14:12:29.056Z,57.53
2018-04-11T14:14:54.999Z,57.59
2018-04-11T14:17:20.968Z,57.43
2018-04-11T14:19:46.960Z,57.37
2018-04-11T14:22:12.863Z,57.00
2018-04-11T14:24:38.853Z,57.35
2018-04-11T14:27:04.819Z,57.07
2018-04-11T14:29:30.776Z,56.87
2018-04-11T14:31:56.731Z,57.06
2018-04-11T14:34:22.680Z,57.00
2018-04-11T14:36:48.625Z,57.12
2018-04-11T14:39:14.583Z,56.89
2018-04-11T14:41:40.551Z,57.05
2018-04-11T14:44:06.500Z,57.17
2018-04-11T14:46:32.456Z,56.95
2018-04-11T14:48:58.400Z,57.14
2018-04-11T14:51:24.425Z,57.40
2018-04-11T14:53:50.374Z,57.47
2018-04-11T14:56:16.339Z,57.36
2018-04-11T14:58:42.298Z,57.57
2018-04-11T15:01:08.276Z,57.43
2018-04-11T15:03:34.226Z,57.43
2018-04-11T15:06:00.160Z,57.34
2018-04-11T15:08:26.126Z,57.25
2018-04-11T15:10:52.084Z,57.30
2018-04-11T15:13:18.056Z,57.44
2018-04-11T15:15:44.013Z,56.95
2018-04-11T15:18:09.955Z,57.12
2018-04-11T15:20:35.887Z,57.34
2018-04-11T15:23:01.845Z,57.07
2018-04-11T15:25:27.909Z,56.97
2018-04-11T15:27:53.852Z,57.16
2018-04-11T15:30:19.823Z,57.17
2018-04-11T15:32:45.851Z,57.42
2018-04-11T15:35:11.801Z,57.25
2018-04-11T15:37:37.750Z,57.06
2018-04-11T15:40:03.771Z,57.39
2018-04-11T15:42:29.792Z,57.37
2018-04-11T15:44:56.739Z,57.25
2018-04-11T15:47:22.713Z,57.45
2018-04-11T15:49:48.661Z,57.24
2018-04-11T15:52:14.607Z,57.22
2018-04-11T15:54:40.576Z,58.00
2018-04-11T15:57:06.520Z,57.09
2018-04-11T15:59:32.473Z,56.95
2018-04-11T16:01:58.436Z,56.99
2018-04-11T16:04:24.373Z,57.18
2018-04-11T16:06:50.341Z,56.68
2018-04-11T16:09:16.316Z,56.70
2018-04-11T16:11:42.268Z,56.72
2018-04-11T16:14:08.232Z,56.55
2018-04-11T16:16:34.180Z,56.47
2018-04-11T16:19:00.125Z,56.72
2018-04-11T16:21:26.173Z,56.74
2018-04-11T16:23:52.119Z,56.71
2018-04-11T16:26:18.101Z,56.74
2018-04-11T16:28:44.060Z,56.94
2018-04-11T16:31:09.992Z,56.49
2018-04-11T16:33:35.941Z,56.45
2018-04-11T16:36:02.029Z,55.86
2018-04-11T16:38:28.017Z,55.73
2018-04-11T16:40:53.959Z,56.02
2018-04-11T16:43:20.015Z,55.35
2018-04-11T16:45:45.960Z,55.83
2018-04-11T16:48:11.945Z,55.64
2018-04-11T16:50:37.888Z,56.97
2018-04-11T16:53:03.891Z,56.21
2018-04-11T16:55:29.913Z,55.96
2018-04-11T16:57:55.886Z,56.38
2018-04-11T17:00:21.897Z,56.32
2018-04-11T17:02:47.832Z,55.89
2018-04-11T17:05:13.784Z,56.05
2018-04-11T17:07:39.729Z,56.65
2018-04-11T17:10:05.703Z,56.50
2018-04-11T17:12:31.660Z,56.36
2018-04-11T17:14:57.602Z,56.63
2018-04-11T17:17:23.552Z,56.90
2018-04-11T17:19:49.498Z,56.87
2018-04-11T17:22:15.478Z,56.45
2018-04-11T17:24:41.436Z,57.15
2018-04-11T17:27:07.422Z,56.91
2018-04-11T17:29:33.369Z,57.05
2018-04-11T17:31:59.311Z,56.76
2018-04-11T17:34:25.248Z,57.10
2018-04-11T17:36:51.240Z,56.83
2018-04-11T17:39:17.205Z,56.68
2018-04-11T17:41:43.152Z,57.02
2018-04-11T17:44:09.121Z,57.09
2018-04-11T17:46:35.067Z,56.89
2018-04-11T17:49:01.029Z,56.92
2018-04-11T17:51:27.037Z,57.04
2018-04-11T17:53:52.928Z,56.92
2018-04-11T17:56:18.934Z,57.00
2018-04-11T17:58:44.884Z,56.82
2018-04-11T18:01:10.832Z,56.87
2018-04-11T18:03:36.816Z,56.80
2018-04-11T18:06:02.919Z,57.04
2018-04-11T18:08:28.869Z,57.26
2018-04-11T18:10:54.824Z,57.08
2018-04-11T18:13:20.776Z,57.11
2018-04-11T18:15:46.719Z,57.19
2018-04-11T18:18:12.697Z,57.14
2018-04-11T18:20:38.647Z,56.93
2018-04-11T18:23:04.620Z,57.18
2018-04-11T18:25:30.565Z,56.87
2018-04-11T18:27:56.549Z,56.81
2018-04-11T18:30:22.505Z,56.94
2018-04-11T18:32:48.443Z,56.95
2018-04-11T18:35:14.408Z,56.89
2018-04-11T18:37:40.352Z,56.88
2018-04-11T18:40:06.301Z,56.81
2018-04-11T18:42:32.241Z,56.96
2018-04-11T18:44:58.197Z,57.03
2018-04-11T18:47:24.160Z,56.84
2018-04-11T18:49:50.123Z,56.74
2018-04-11T18:52:16.082Z,56.86
2018-04-11T18:54:42.080Z,56.88
2018-04-11T18:57:08.028Z,56.97
2018-04-11T18:59:33.994Z,57.11
2018-04-11T19:01:59.946Z,57.17
2018-04-11T19:04:25.898Z,56.98
2018-04-11T19:06:51.862Z,56.64
2018-04-11T19:09:17.804Z,56.52
2018-04-11T19:11:43.760Z,56.31
2018-04-11T19:14:09.737Z,56.17
2018-04-11T19:16:35.677Z,56.04
2018-04-11T19:19:01.656Z,56.11
2018-04-11T19:21:27.607Z,56.58
2018-04-11T19:23:53.556Z,56.49
2018-04-11T19:26:19.508Z,56.46
2018-04-11T19:28:45.457Z,56.14
2018-04-11T19:31:11.460Z,56.78
2018-04-11T19:33:37.381Z,56.29
2018-04-11T19:36:03.357Z,56.15
2018-04-11T19:38:29.306Z,56.09
2018-04-11T19:40:55.280Z,56.21
2018-04-11T19:43:21.240Z,56.44
2018-04-11T19:45:47.229Z,56.75
2018-04-11T19:48:13.400Z,57.01
2018-04-11T19:50:39.399Z,57.09
2018-04-11T19:53:05.429Z,56.99
2018-04-11T19:55:31.396Z,56.65
2018-04-11T19:57:57.413Z,56.78
2018-04-11T20:00:23.401Z,56.50
2018-04-11T20:02:49.348Z,56.32
2018-04-11T20:05:15.345Z,56.42
2018-04-11T20:07:41.319Z,56.50
2018-04-11T20:10:07.284Z,56.62
2018-04-11T20:12:33.261Z,56.44
2018-04-11T20:14:59.192Z,56.53
2018-04-11T20:17:25.152Z,56.55
2018-04-11T20:19:51.109Z,56.72
2018-04-11T20:22:17.079Z,56.25
2018-04-11T20:24:43.033Z,56.11
2018-04-11T20:27:09.009Z,55.99
2018-04-11T20:29:34.963Z,55.91
2018-04-11T20:32:00.920Z,55.99
2018-04-11T20:34:26.870Z,56.23
2018-04-11T20:36:52.864Z,56.57
2018-04-11T20:39:18.843Z,56.87
2018-04-11T20:41:44.781Z,56.67
2018-04-11T20:44:10.848Z,56.55
2018-04-11T20:46:36.797Z,56.48
2018-04-11T20:49:02.733Z,56.45
2018-04-11T20:51:28.712Z,56.33
2018-04-11T20:53:54.744Z,56.34
2018-04-11T20:56:20.684Z,56.28
2018-04-11T20:58:46.632Z,56.52
2018-04-11T21:01:12.602Z,56.21
2018-04-11T21:03:38.535Z,56.23
2018-04-11T21:06:04.505Z,56.46
2018-04-11T21:08:30.420Z,56.65
2018-04-11T21:10:56.384Z,56.49
2018-04-11T21:13:22.333Z,56.40
2018-04-11T21:15:48.298Z,56.54
2018-04-11T21:18:14.472Z,56.97
2018-04-11T21:20:40.431Z,56.76
2018-04-11T21:23:06.475Z,56.33
2018-04-11T21:25:32.514Z,56.65
2018-04-11T21:27:58.556Z,56.69
2018-04-11T21:30:24.579Z,56.51
2018-04-11T21:32:50.619Z,56.34
2018-04-11T21:35:16.584Z,56.44
2018-04-11T21:37:42.556Z,56.46
2018-04-11T21:40:08.528Z,56.46
2018-04-11T21:42:34.475Z,56.40
2018-04-11T21:45:00.443Z,56.30
2018-04-11T21:47:26.401Z,56.59
2018-04-11T21:49:52.366Z,56.45
2018-04-11T21:52:18.300Z,56.35
2018-04-11T21:54:44.264Z,56.33
2018-04-11T21:57:10.209Z,56.37
2018-04-11T21:59:36.179Z,56.41
2018-04-11T22:02:02.162Z,56.29
2018-04-11T22:04:28.096Z,56.33
2018-04-11T22:06:54.072Z,56.93
2018-04-11T22:09:20.024Z,56.91
2018-04-11T22:11:45.989Z,56.91
2018-04-11T22:14:11.944Z,57.13
2018-04-11T22:16:37.988Z,57.19
2018-04-11T22:19:03.936Z,57.21
2018-04-11T22:21:29.895Z,56.90
2018-04-11T22:23:55.833Z,56.91
2018-04-11T22:26:21.815Z,56.75
2018-04-11T22:28:47.764Z,56.64
2018-04-11T22:31:13.742Z,56.83
2018-04-11T22:33:39.676Z,56.98
2018-04-11T22:36:05.631Z,56.88
2018-04-11T22:38:31.593Z,56.93
2018-04-11T22:40:57.586Z,57.66
2018-04-11T22:43:23.556Z,57.26
2018-04-11T22:45:49.487Z,57.39
2018-04-11T22:48:15.451Z,57.48
2018-04-11T22:50:41.473Z,57.27
2018-04-11T22:53:07.423Z,57.59
2018-04-11T22:55:33.412Z,57.50
2018-04-11T22:57:59.340Z,57.67
2018-04-11T23:00:25.308Z,57.31
2018-04-11T23:02:51.259Z,57.31
2018-04-11T23:05:17.211Z,57.26
2018-04-11T23:07:43.156Z,57.22
2018-04-11T23:10:09.117Z,57.32
2018-04-11T23:12:35.061Z,57.79
2018-04-11T23:15:00.999Z,57.44
2018-04-11T23:17:26.947Z,57.44
2018-04-11T23:19:52.913Z,57.32
2018-04-11T23:22:18.843Z,57.39
2018-04-11T23:24:44.784Z,57.42
2018-04-11T23:27:10.729Z,57.78
2018-04-11T23:29:36.701Z,57.57
2018-04-11T23:32:02.640Z,57.74
2018-04-11T23:34:28.584Z,57.57
2018-04-11T23:36:54.659Z,57.66
2018-04-11T23:39:20.615Z,57.31
2018-04-11T23:41:46.555Z,57.71
2018-04-11T23:44:12.501Z,57.59
2018-04-11T23:46:38.440Z,57.74
2018-04-11T23:49:04.400Z,57.65
2018-04-11T23:51:30.436Z,57.57
2018-04-11T23:53:56.393Z,57.44
2018-04-11T23:56:22.339Z,57.67
2018-04-11T23:58:48.340Z,57.96
